Valgardena — ICKG — position and weather

sailwx.info

Track history (hours):
 
Tides and Currents Weather Stations Pressure Air Temp Water Temp Dewpoint Dewpoint Depression Visibility Wind Speed Wind Dir Waves Ship Positions

Valgardena

Last reported at 2016-Dec-06 07:30 UTC. Time now 2016-Dec-06 08:18 UTC.
Position N 35°56' E 014°51'.

Length 184 m; draft 9 m.

Type: Ship (hazmat cat B). MMSI: 247243800.

Date/timePositionNaut miles runAvg speedWind from/ knotsBaromVisibWave heightAir tempDewpointWater temp
2016-Dec-06 07:30N 35°56' E 014°51'0 0.0
2016-Dec-06 06:06N 35°56' E 014°51'0 0.0
2016-Dec-06 02:21N 35°56' E 014°51'0 0.0
2016-Dec-06 01:27N 35°56' E 014°51'0 0.0
2016-Dec-06 00:33N 35°56' E 014°51'0 0.0
2016-Dec-05 23:30N 35°56' E 014°52'0 0.0
2016-Dec-05 15:33N 35°56' E 014°52'0 0.1
2016-Dec-05 14:30N 35°56' E 014°52'0 0.0
2016-Dec-05 13:33N 35°56' E 014°52'0 0.1
2016-Dec-05 12:33N 35°56' E 014°52'0 0.1
2016-Dec-05 11:33N 35°56' E 014°52'9511.8
2016-Dec-05 03:33N 37°20' E 015°46'1413.8
2016-Dec-05 02:33N 37°32' E 015°56'1313.4
2016-Dec-05 01:33N 37°43' E 016°05'7213.3
2016-Dec-04 20:08N 38°39' E 017°03'110 3.4
2016-Dec-03 11:31N 40°28' E 017°12'0 0.0
2016-Dec-03 10:31N 40°28' E 017°12'0 0.0
2016-Dec-03 09:31N 40°28' E 017°12'0 0.0
2016-Dec-03 08:31N 40°28' E 017°12'0 0.0
2016-Dec-03 07:31N 40°28' E 017°12'0 0.0
2016-Dec-03 00:31N 40°28' E 017°12'0 0.0
2016-Dec-02 23:31N 40°28' E 017°12'0 0.0
2016-Dec-02 22:31N 40°28' E 017°12'0 0.0
2016-Dec-02 21:31N 40°28' E 017°12'0 0.0
2016-Dec-02 20:31N 40°28' E 017°12'0 0.0
2016-Dec-02 19:31N 40°28' E 017°12'1 0.5
2016-Dec-02 18:33N 40°28' E 017°12'0 0.1
2016-Dec-02 17:31N 40°28' E 017°12'0 0.1
2016-Dec-02 16:31N 40°28' E 017°12'0 0.1
2016-Dec-02 15:31N 40°28' E 017°12'0 0.0
2016-Dec-02 14:31N 40°28' E 017°12'0 0.0
2016-Dec-02 13:31N 40°28' E 017°12'0 0.0
2016-Dec-02 12:31N 40°28' E 017°12'0 0.0
2016-Dec-02 11:31N 40°28' E 017°12'0 0.0
2016-Dec-02 10:31N 40°28' E 017°12'0 0.1
2016-Dec-02 09:28N 40°28' E 017°12'0 0.1
2016-Dec-02 08:31N 40°28' E 017°12'0 0.1
2016-Dec-02 07:31N 40°28' E 017°12'0 0.0
2016-Dec-02 00:31N 40°28' E 017°12'0 0.1
2016-Dec-01 23:31N 40°28' E 017°12'0 0.0
2016-Dec-01 22:31N 40°28' E 017°12'0 0.0
2016-Dec-01 21:31N 40°28' E 017°12'0 0.0
2016-Dec-01 20:31N 40°28' E 017°12'0 0.0
2016-Dec-01 19:31N 40°28' E 017°12'0 0.1
2016-Dec-01 18:31N 40°28' E 017°12'0 0.1
2016-Dec-01 17:31N 40°28' E 017°12'0 0.1
2016-Dec-01 16:31N 40°28' E 017°12'0 0.0
2016-Dec-01 15:31N 40°28' E 017°12'0 0.0
2016-Dec-01 14:31N 40°28' E 017°12'0 0.0
2016-Dec-01 13:31N 40°28' E 017°12'0 0.1
2016-Dec-01 12:31N 40°28' E 017°12'0 0.1
2016-Dec-01 11:31N 40°28' E 017°12'0 0.0
2016-Dec-01 10:31N 40°28' E 017°12'0 0.0
2016-Dec-01 09:31N 40°28' E 017°12'0 0.0
2016-Dec-01 08:31N 40°28' E 017°12'0 0.1
2016-Dec-01 07:31N 40°28' E 017°12'0 0.0
2016-Dec-01 00:31N 40°28' E 017°12'0 0.0
2016-Nov-30 23:31N 40°28' E 017°12'2 2.3
2016-Nov-30 22:32N 40°26' E 017°11'9 9.4
2016-Nov-30 21:33N 40°17' E 017°09'1212.0
2016-Nov-30 20:32N 40°05' E 017°12'1212.1
2016-Nov-30 19:32N 39°53' E 017°15'14010.0
2016-Nov-30 05:32N 37°43' E 016°07'1212.2
2016-Nov-30 04:33N 37°33' E 015°58'82 9.8
2016-Nov-29 20:09N 36°37' E 014°43'813.4
2016-Nov-29 19:33N 36°39' E 014°33'1313.2
2016-Nov-29 18:34N 36°44' E 014°18'1312.9
2016-Nov-29 17:34N 36°50' E 014°04'1313.1
2016-Nov-29 16:33N 36°56' E 013°49'1313.3
2016-Nov-29 15:34N 37°02' E 013°35'  
Track history (hours):
 
Tides and Currents Weather Stations Pressure Air Temp Water Temp Dewpoint Dewpoint Depression Visibility Wind Speed Wind Dir Waves Ship Positions

Valgardena

Last reported at 2016-Dec-06 07:30 UTC. Time now 2016-Dec-06 08:18 UTC.
Position N 35°56' E 014°51'.

Length 184 m; draft 9 m.

Type: Ship (hazmat cat B). MMSI: 247243800.

Date/timePositionNaut miles runAvg speedWind from/ knotsBaromVisibWave heightAir tempDewpointWater temp
2016-Dec-06 07:30N 35°56' E 014°51'0 0.0
2016-Dec-06 06:06N 35°56' E 014°51'0 0.0
2016-Dec-06 02:21N 35°56' E 014°51'0 0.0
2016-Dec-06 01:27N 35°56' E 014°51'0 0.0
2016-Dec-06 00:33N 35°56' E 014°51'0 0.0
2016-Dec-05 23:30N 35°56' E 014°52'0 0.0
2016-Dec-05 15:33N 35°56' E 014°52'0 0.1
2016-Dec-05 14:30N 35°56' E 014°52'0 0.0
2016-Dec-05 13:33N 35°56' E 014°52'0 0.1
2016-Dec-05 12:33N 35°56' E 014°52'0 0.1
2016-Dec-05 11:33N 35°56' E 014°52'9511.8
2016-Dec-05 03:33N 37°20' E 015°46'1413.8
2016-Dec-05 02:33N 37°32' E 015°56'1313.4
2016-Dec-05 01:33N 37°43' E 016°05'7213.3
2016-Dec-04 20:08N 38°39' E 017°03'110 3.4
2016-Dec-03 11:31N 40°28' E 017°12'0 0.0
2016-Dec-03 10:31N 40°28' E 017°12'0 0.0
2016-Dec-03 09:31N 40°28' E 017°12'0 0.0
2016-Dec-03 08:31N 40°28' E 017°12'0 0.0
2016-Dec-03 07:31N 40°28' E 017°12'0 0.0
2016-Dec-03 00:31N 40°28' E 017°12'0 0.0
2016-Dec-02 23:31N 40°28' E 017°12'0 0.0
2016-Dec-02 22:31N 40°28' E 017°12'0 0.0
2016-Dec-02 21:31N 40°28' E 017°12'0 0.0
2016-Dec-02 20:31N 40°28' E 017°12'0 0.0
2016-Dec-02 19:31N 40°28' E 017°12'1 0.5
2016-Dec-02 18:33N 40°28' E 017°12'0 0.1
2016-Dec-02 17:31N 40°28' E 017°12'0 0.1
2016-Dec-02 16:31N 40°28' E 017°12'0 0.1
2016-Dec-02 15:31N 40°28' E 017°12'0 0.0
2016-Dec-02 14:31N 40°28' E 017°12'0 0.0
2016-Dec-02 13:31N 40°28' E 017°12'0 0.0
2016-Dec-02 12:31N 40°28' E 017°12'0 0.0
2016-Dec-02 11:31N 40°28' E 017°12'0 0.0
2016-Dec-02 10:31N 40°28' E 017°12'0 0.1
2016-Dec-02 09:28N 40°28' E 017°12'0 0.1
2016-Dec-02 08:31N 40°28' E 017°12'0 0.1
2016-Dec-02 07:31N 40°28' E 017°12'0 0.0
2016-Dec-02 00:31N 40°28' E 017°12'0 0.1
2016-Dec-01 23:31N 40°28' E 017°12'0 0.0
2016-Dec-01 22:31N 40°28' E 017°12'0 0.0
2016-Dec-01 21:31N 40°28' E 017°12'0 0.0
2016-Dec-01 20:31N 40°28' E 017°12'0 0.0
2016-Dec-01 19:31N 40°28' E 017°12'0 0.1
2016-Dec-01 18:31N 40°28' E 017°12'0 0.1
2016-Dec-01 17:31N 40°28' E 017°12'0 0.1
2016-Dec-01 16:31N 40°28' E 017°12'0 0.0
2016-Dec-01 15:31N 40°28' E 017°12'0 0.0
2016-Dec-01 14:31N 40°28' E 017°12'0 0.0
2016-Dec-01 13:31N 40°28' E 017°12'0 0.1
2016-Dec-01 12:31N 40°28' E 017°12'0 0.1
2016-Dec-01 11:31N 40°28' E 017°12'0 0.0
2016-Dec-01 10:31N 40°28' E 017°12'0 0.0
2016-Dec-01 09:31N 40°28' E 017°12'0 0.0
2016-Dec-01 08:31N 40°28' E 017°12'0 0.1
2016-Dec-01 07:31N 40°28' E 017°12'0 0.0
2016-Dec-01 00:31N 40°28' E 017°12'0 0.0
2016-Nov-30 23:31N 40°28' E 017°12'2 2.3
2016-Nov-30 22:32N 40°26' E 017°11'9 9.4
2016-Nov-30 21:33N 40°17' E 017°09'1212.0
2016-Nov-30 20:32N 40°05' E 017°12'1212.1
2016-Nov-30 19:32N 39°53' E 017°15'14010.0
2016-Nov-30 05:32N 37°43' E 016°07'1212.2
2016-Nov-30 04:33N 37°33' E 015°58'82 9.8
2016-Nov-29 20:09N 36°37' E 014°43'813.4
2016-Nov-29 19:33N 36°39' E 014°33'1313.2
2016-Nov-29 18:34N 36°44' E 014°18'1312.9
2016-Nov-29 17:34N 36°50' E 014°04'1313.1
2016-Nov-29 16:33N 36°56' E 013°49'1313.3
2016-Nov-29 15:34N 37°02' E 013°35'  

Dump ship's entire track history